ETEB 282256Z AUTO 00000KT 8000 BR FEW013 SCT027 BKN070 M01/M01 A2947 RMK AO2 FZDZB07E16 SLP016 P0000 T10111012 400051026 $ ETIK 282346Z AUTO 00000KT 9000 -UP BR OVC032 00/00 A2951 RMK AO2 UPB46 SLP012 $ EDDE 282320Z 25009KT 9999 SCT037 M00/M01 Q0998 EDDF 282320Z VRB02KT 9999 FEW027 M00/M01 Q1000 NOSIG ETIC 282341Z AUTO 00000KT 9999 SCT011 BKN050 OVC065 M01/M01 A2945 RMK AO2 FZDZE2256FZDZB2256E2256FZDZB27E41FZDZB41 SLP995 $ EDQM 282320Z AUTO VRB02KT 6000 // OVC055/// M02/M02 Q0997 ETIH 282301Z AUTO 00000KT 5000 BR SCT015 OVC065 M01/M02 A2946 RMK AO2 SLP001 $ ETSI 282320Z AUTO 29001KT 4900 // ////// M00/M01 Q0998 /// EDDP 282320Z 25006KT 9999 FEW037 M00/M02 Q0998 NOSIG EDDM 282320Z 28002KT 9999 FEW010 00/M01 Q0998 NOSIG ETSN 282320Z 28004KT 9000 BKN020 BKN070 M01/M01 Q0998 WHT ETHN 282320Z 28003KT 3000 -SN BR BKN001 OVC006 M00/M00 Q0998 RED EDDN 282320Z 29002KT 7000 BKN004 BKN016 00/00 Q0999 EDDS 282320Z 28003KT 9999 OVC008 01/M00 Q0999

METAR Messwerte

Klicken Sie auf einen Ort, um die 36h-Historie abzurufen

Ort
m ü. NN
Zeit Temperatur Taupunkt Rel.
Luftfeuchte
Luftdruck:
Altimeter
NN
Station
Wind in Beaufort
(Knoten)
Sichtweite
(Meter)
Wolken
(Meter über Grund)
Wettererscheinung
Ansbach
467
So 28.11. 23:56-1-1100 %998
1001
944
Windstill8000Stark bewölkt (2100)
Wolkig (820)
Leicht bewölkt (400)
Nebeldunst
Bad Windsheim / Illesheim
325
Mo 29.11. 00:4600100 %999
1001
961
Windstill9000Bedeckt (980)Niederschläge (schwach)
Nebeldunst
Erfurt-Bindersleben
323
Mo 29.11. 00:20-0-193 %998
1000
960
WSW 3 (9)>= 10000Wolkig (1100) 
Frankfurt
113
Mo 29.11. 00:20-0-193 %1000
1001
987
Uml 1 (2)>= 10000Leicht bewölkt (820) 
Grafenwöhr
415
Mo 29.11. 00:41-1-1100 %997
1000
949
Windstill>= 10000Bedeckt (2000)
Stark bewölkt (1500)
Wolkig (340)
 
Hof
568
Mo 29.11. 00:20-2-2100 %997
1001
931
Uml 1 (2)6000Bedeckt (1700) 
Hohenfels
442
Mo 29.11. 00:01-1-293 %998
1001
947
Windstill5000Bedeckt (2000)
Wolkig (460)
Nebeldunst
Ingolstadt
370
Mo 29.11. 00:20-0-193 %998
1000
955
WNW 1 (1)4900  
Leipzig-Schkeuditz
149
Mo 29.11. 00:20-0-286 %998
999
980
WSW 2 (6)>= 10000Leicht bewölkt (1100) 
München
447
Mo 29.11. 00:200-193 %998
1001
946
W 1 (2)>= 10000Leicht bewölkt (300) 
Neuburg/Donau
387
Mo 29.11. 00:20-1-1100 %998
1001
953
W 2 (4)9000Stark bewölkt (2100)
Stark bewölkt (610)
 
Niederstetten
473
Mo 29.11. 00:20-0-0100 %998
1001
943
W 2 (3)3000Bedeckt (180)
Stark bewölkt (30)
Schneefall (schwach)
Nebeldunst
Nürnberg
312
Mo 29.11. 00:2000100 %999
1001
962
WNW 1 (2)7000Stark bewölkt (490)
Stark bewölkt (120)
 
Stuttgart
419
Mo 29.11. 00:201-093 %999
1001
950
W 2 (3)>= 10000Bedeckt (240) 

Altimeter: Einstellung am Altimeter (Höhenmesser), die Höhe 0 muss auf diesen Luftdruckwert zeigen, damit das Gerät die Stationshöhe richtig anzeigt.

NN: Luftdruck reduziert auf "Normal Null", auf Meereshöhe, dieser von der Temperatur abhängige Wert wird bisweilen unkorrekt einfach als "Luftdruck" bezeichnet. Eigentlich nur eine fiktive Größe, die es erlaubt, Stationen auf unterschiedlichen Höhen miteinander zu vergleichen.

Station: Realer Luftdruck an der Station.